sensor_id;sensor_type;location;lat;lon;timestamp;P1;durP1;ratioP1;P2;durP2;ratioP2
3795;SDS011;1913;50.660;7.834;2023-03-01T00:01:18;17.83;;;9.37;;
3795;SDS011;1913;50.660;7.834;2023-03-01T00:03:46;14.10;;;9.80;;
3795;SDS011;1913;50.660;7.834;2023-03-01T00:06:11;14.97;;;9.57;;
3795;SDS011;1913;50.660;7.834;2023-03-01T00:08:37;15.67;;;10.20;;
3795;SDS011;1913;50.660;7.834;2023-03-01T00:11:05;16.37;;;9.97;;
3795;SDS011;1913;50.660;7.834;2023-03-01T00:13:42;17.80;;;10.40;;
3795;SDS011;1913;50.660;7.834;2023-03-01T00:16:09;15.00;;;9.87;;
3795;SDS011;1913;50.660;7.834;2023-03-01T00:18:38;16.63;;;9.97;;
3795;SDS011;1913;50.660;7.834;2023-03-01T00:21:03;19.53;;;9.70;;
3795;SDS011;1913;50.660;7.834;2023-03-01T00:23:29;18.00;;;10.30;;
3795;SDS011;1913;50.660;7.834;2023-03-01T00:25:54;19.57;;;10.03;;
3795;SDS011;1913;50.660;7.834;2023-03-01T00:28:20;21.30;;;9.93;;
3795;SDS011;1913;50.660;7.834;2023-03-01T00:30:46;13.00;;;9.53;;
3795;SDS011;1913;50.660;7.834;2023-03-01T00:33:12;18.03;;;10.57;;
3795;SDS011;1913;50.660;7.834;2023-03-01T00:35:37;20.90;;;11.13;;
3795;SDS011;1913;50.660;7.834;2023-03-01T00:38:03;15.73;;;9.70;;
3795;SDS011;1913;50.660;7.834;2023-03-01T00:40:29;13.93;;;9.77;;
3795;SDS011;1913;50.660;7.834;2023-03-01T00:42:56;18.07;;;10.33;;
3795;SDS011;1913;50.660;7.834;2023-03-01T00:45:22;18.10;;;9.77;;
3795;SDS011;1913;50.660;7.834;2023-03-01T00:47:50;17.97;;;10.60;;
3795;SDS011;1913;50.660;7.834;2023-03-01T00:50:16;19.70;;;11.07;;
3795;SDS011;1913;50.660;7.834;2023-03-01T00:52:42;17.20;;;10.77;;
3795;SDS011;1913;50.660;7.834;2023-03-01T00:55:08;22.53;;;10.70;;
3795;SDS011;1913;50.660;7.834;2023-03-01T00:57:34;25.27;;;10.70;;
3795;SDS011;1913;50.660;7.834;2023-03-01T00:59:59;16.60;;;10.17;;
3795;SDS011;1913;50.660;7.834;2023-03-01T01:02:25;21.10;;;11.00;;
3795;SDS011;1913;50.660;7.834;2023-03-01T01:04:51;19.97;;;10.27;;
3795;SDS011;1913;50.660;7.834;2023-03-01T01:07:16;19.70;;;11.37;;
3795;SDS011;1913;50.660;7.834;2023-03-01T01:09:42;19.50;;;11.40;;
3795;SDS011;1913;50.660;7.834;2023-03-01T01:12:08;20.73;;;10.63;;
3795;SDS011;1913;50.660;7.834;2023-03-01T01:14:34;19.87;;;10.50;;
3795;SDS011;1913;50.660;7.834;2023-03-01T01:17:00;15.90;;;10.80;;
3795;SDS011;1913;50.660;7.834;2023-03-01T01:19:25;19.80;;;10.50;;
3795;SDS011;1913;50.660;7.834;2023-03-01T01:21:51;18.90;;;10.40;;
3795;SDS011;1913;50.660;7.834;2023-03-01T01:24:17;22.87;;;12.03;;
3795;SDS011;1913;50.660;7.834;2023-03-01T01:26:43;17.57;;;11.00;;
3795;SDS011;1913;50.660;7.834;2023-03-01T01:29:09;17.00;;;11.30;;
3795;SDS011;1913;50.660;7.834;2023-03-01T01:31:36;19.97;;;10.63;;
3795;SDS011;1913;50.660;7.834;2023-03-01T01:34:03;20.27;;;11.13;;
3795;SDS011;1913;50.660;7.834;2023-03-01T01:36:30;21.00;;;10.60;;
3795;SDS011;1913;50.660;7.834;2023-03-01T01:38:58;21.40;;;11.30;;
3795;SDS011;1913;50.660;7.834;2023-03-01T01:41:24;21.97;;;13.00;;
3795;SDS011;1913;50.660;7.834;2023-03-01T01:44:11;20.30;;;11.50;;
3795;SDS011;1913;50.660;7.834;2023-03-01T01:46:37;21.93;;;11.97;;
3795;SDS011;1913;50.660;7.834;2023-03-01T01:51:55;20.90;;;11.30;;
3795;SDS011;1913;50.660;7.834;2023-03-01T01:54:30;22.60;;;11.73;;
3795;SDS011;1913;50.660;7.834;2023-03-01T01:57:03;19.10;;;10.03;;
3795;SDS011;1913;50.660;7.834;2023-03-01T01:59:35;23.90;;;12.20;;
3795;SDS011;1913;50.660;7.834;2023-03-01T02:02:03;21.30;;;10.77;;
3795;SDS011;1913;50.660;7.834;2023-03-01T02:04:29;19.07;;;11.87;;
3795;SDS011;1913;50.660;7.834;2023-03-01T02:07:05;17.57;;;10.13;;
3795;SDS011;1913;50.660;7.834;2023-03-01T02:09:38;21.13;;;11.70;;
3795;SDS011;1913;50.660;7.834;2023-03-01T02:12:03;20.97;;;12.37;;
3795;SDS011;1913;50.660;7.834;2023-03-01T02:14:30;20.47;;;11.50;;
3795;SDS011;1913;50.660;7.834;2023-03-01T02:16:55;23.67;;;11.97;;
3795;SDS011;1913;50.660;7.834;2023-03-01T02:19:25;20.83;;;11.27;;
3795;SDS011;1913;50.660;7.834;2023-03-01T02:22:20;21.50;;;11.63;;
3795;SDS011;1913;50.660;7.834;2023-03-01T02:30:43;20.00;;;11.60;;
3795;SDS011;1913;50.660;7.834;2023-03-01T02:33:31;18.60;;;10.90;;
3795;SDS011;1913;50.660;7.834;2023-03-01T02:36:03;22.80;;;11.40;;
3795;SDS011;1913;50.660;7.834;2023-03-01T02:38:32;19.40;;;11.43;;
3795;SDS011;1913;50.660;7.834;2023-03-01T02:40:58;23.30;;;12.33;;
3795;SDS011;1913;50.660;7.834;2023-03-01T02:43:25;24.17;;;12.10;;
3795;SDS011;1913;50.660;7.834;2023-03-01T02:45:57;23.67;;;11.23;;
3795;SDS011;1913;50.660;7.834;2023-03-01T02:48:37;23.63;;;12.03;;
3795;SDS011;1913;50.660;7.834;2023-03-01T02:56:38;22.57;;;11.97;;
3795;SDS011;1913;50.660;7.834;2023-03-01T02:59:05;24.73;;;12.30;;
3795;SDS011;1913;50.660;7.834;2023-03-01T03:01:31;22.17;;;11.90;;
3795;SDS011;1913;50.660;7.834;2023-03-01T03:04:05;17.83;;;10.70;;
3795;SDS011;1913;50.660;7.834;2023-03-01T03:06:34;22.20;;;12.10;;
3795;SDS011;1913;50.660;7.834;2023-03-01T03:09:00;21.33;;;11.80;;
3795;SDS011;1913;50.660;7.834;2023-03-01T03:11:26;26.80;;;12.93;;
3795;SDS011;1913;50.660;7.834;2023-03-01T03:13:52;19.27;;;11.70;;
3795;SDS011;1913;50.660;7.834;2023-03-01T03:16:17;20.23;;;11.57;;
3795;SDS011;1913;50.660;7.834;2023-03-01T03:18:43;21.20;;;12.37;;
3795;SDS011;1913;50.660;7.834;2023-03-01T03:21:10;23.90;;;12.50;;
3795;SDS011;1913;50.660;7.834;2023-03-01T03:23:36;25.20;;;13.20;;
3795;SDS011;1913;50.660;7.834;2023-03-01T03:26:05;23.07;;;12.40;;
3795;SDS011;1913;50.660;7.834;2023-03-01T03:28:34;21.83;;;11.47;;
3795;SDS011;1913;50.660;7.834;2023-03-01T03:31:00;21.87;;;12.37;;
3795;SDS011;1913;50.660;7.834;2023-03-01T03:33:31;23.50;;;12.97;;
3795;SDS011;1913;50.660;7.834;2023-03-01T03:35:57;23.37;;;13.23;;
3795;SDS011;1913;50.660;7.834;2023-03-01T03:38:23;19.60;;;12.00;;
3795;SDS011;1913;50.660;7.834;2023-03-01T03:40:50;22.73;;;12.30;;
3795;SDS011;1913;50.660;7.834;2023-03-01T03:43:21;21.90;;;11.30;;
3795;SDS011;1913;50.660;7.834;2023-03-01T03:45:48;20.97;;;11.73;;
3795;SDS011;1913;50.660;7.834;2023-03-01T03:48:15;19.10;;;11.70;;
3795;SDS011;1913;50.660;7.834;2023-03-01T03:50:41;20.53;;;11.67;;
3795;SDS011;1913;50.660;7.834;2023-03-01T03:53:08;21.20;;;12.03;;
3795;SDS011;1913;50.660;7.834;2023-03-01T03:55:36;20.27;;;12.10;;
3795;SDS011;1913;50.660;7.834;2023-03-01T03:58:04;19.90;;;12.03;;
3795;SDS011;1913;50.660;7.834;2023-03-01T04:00:35;25.30;;;12.47;;
3795;SDS011;1913;50.660;7.834;2023-03-01T04:03:05;22.80;;;11.30;;
3795;SDS011;1913;50.660;7.834;2023-03-01T04:05:31;23.50;;;12.87;;
3795;SDS011;1913;50.660;7.834;2023-03-01T04:07:56;25.47;;;12.70;;
3795;SDS011;1913;50.660;7.834;2023-03-01T04:10:29;22.33;;;12.10;;
3795;SDS011;1913;50.660;7.834;2023-03-01T04:12:57;26.20;;;13.63;;
3795;SDS011;1913;50.660;7.834;2023-03-01T04:15:23;20.93;;;11.40;;
3795;SDS011;1913;50.660;7.834;2023-03-01T04:17:50;24.03;;;12.70;;
3795;SDS011;1913;50.660;7.834;2023-03-01T04:20:20;28.83;;;13.03;;
3795;SDS011;1913;50.660;7.834;2023-03-01T04:28:18;20.50;;;10.73;;
3795;SDS011;1913;50.660;7.834;2023-03-01T04:30:44;21.77;;;11.97;;
3795;SDS011;1913;50.660;7.834;2023-03-01T04:33:10;27.53;;;11.80;;
3795;SDS011;1913;50.660;7.834;2023-03-01T04:35:36;20.93;;;11.40;;
3795;SDS011;1913;50.660;7.834;2023-03-01T04:38:03;21.77;;;11.90;;
3795;SDS011;1913;50.660;7.834;2023-03-01T04:40:30;21.27;;;11.80;;
3795;SDS011;1913;50.660;7.834;2023-03-01T04:42:58;21.40;;;11.33;;
3795;SDS011;1913;50.660;7.834;2023-03-01T04:45:23;20.07;;;10.83;;
3795;SDS011;1913;50.660;7.834;2023-03-01T04:47:48;21.97;;;11.10;;
3795;SDS011;1913;50.660;7.834;2023-03-01T04:50:17;17.57;;;10.83;;
3795;SDS011;1913;50.660;7.834;2023-03-01T04:52:45;22.20;;;11.70;;
3795;SDS011;1913;50.660;7.834;2023-03-01T04:55:11;17.33;;;11.13;;
3795;SDS011;1913;50.660;7.834;2023-03-01T04:57:37;22.33;;;12.00;;
3795;SDS011;1913;50.660;7.834;2023-03-01T05:00:04;19.40;;;11.00;;
3795;SDS011;1913;50.660;7.834;2023-03-01T05:02:45;25.30;;;12.33;;
3795;SDS011;1913;50.660;7.834;2023-03-01T05:05:18;24.63;;;12.27;;
3795;SDS011;1913;50.660;7.834;2023-03-01T05:07:50;24.20;;;13.33;;
3795;SDS011;1913;50.660;7.834;2023-03-01T05:10:16;33.33;;;17.30;;
3795;SDS011;1913;50.660;7.834;2023-03-01T05:12:42;38.63;;;18.57;;
3795;SDS011;1913;50.660;7.834;2023-03-01T05:15:07;38.27;;;17.00;;
3795;SDS011;1913;50.660;7.834;2023-03-01T05:17:33;33.23;;;17.60;;
3795;SDS011;1913;50.660;7.834;2023-03-01T05:19:59;40.63;;;19.70;;
3795;SDS011;1913;50.660;7.834;2023-03-01T05:22:26;32.50;;;17.10;;
3795;SDS011;1913;50.660;7.834;2023-03-01T05:24:51;37.50;;;18.93;;
3795;SDS011;1913;50.660;7.834;2023-03-01T05:30:06;33.30;;;16.47;;
3795;SDS011;1913;50.660;7.834;2023-03-01T05:32:43;25.40;;;13.23;;
3795;SDS011;1913;50.660;7.834;2023-03-01T05:35:11;29.60;;;15.80;;
3795;SDS011;1913;50.660;7.834;2023-03-01T05:37:44;25.10;;;14.20;;
3795;SDS011;1913;50.660;7.834;2023-03-01T05:40:12;25.43;;;13.00;;
3795;SDS011;1913;50.660;7.834;2023-03-01T05:42:43;27.10;;;14.23;;
3795;SDS011;1913;50.660;7.834;2023-03-01T05:45:13;23.27;;;12.60;;
3795;SDS011;1913;50.660;7.834;2023-03-01T05:47:40;27.37;;;13.93;;
3795;SDS011;1913;50.660;7.834;2023-03-01T05:50:18;26.57;;;13.93;;
3795;SDS011;1913;50.660;7.834;2023-03-01T05:52:46;27.10;;;13.17;;
3795;SDS011;1913;50.660;7.834;2023-03-01T05:55:16;22.03;;;12.27;;
3795;SDS011;1913;50.660;7.834;2023-03-01T05:57:43;21.00;;;12.07;;
3795;SDS011;1913;50.660;7.834;2023-03-01T06:00:10;23.40;;;11.37;;
3795;SDS011;1913;50.660;7.834;2023-03-01T06:02:38;21.33;;;12.03;;
3795;SDS011;1913;50.660;7.834;2023-03-01T06:05:04;22.27;;;12.30;;
3795;SDS011;1913;50.660;7.834;2023-03-01T06:07:31;23.90;;;12.53;;
3795;SDS011;1913;50.660;7.834;2023-03-01T06:09:56;24.33;;;12.40;;
3795;SDS011;1913;50.660;7.834;2023-03-01T06:12:22;22.67;;;12.60;;
3795;SDS011;1913;50.660;7.834;2023-03-01T06:14:47;23.73;;;11.23;;
3795;SDS011;1913;50.660;7.834;2023-03-01T06:17:13;21.80;;;10.90;;
3795;SDS011;1913;50.660;7.834;2023-03-01T06:19:38;25.30;;;13.37;;
3795;SDS011;1913;50.660;7.834;2023-03-01T06:22:04;23.53;;;12.20;;
3795;SDS011;1913;50.660;7.834;2023-03-01T06:24:29;20.77;;;11.93;;
3795;SDS011;1913;50.660;7.834;2023-03-01T06:26:55;23.47;;;13.03;;
3795;SDS011;1913;50.660;7.834;2023-03-01T06:29:20;28.53;;;12.93;;
3795;SDS011;1913;50.660;7.834;2023-03-01T06:31:47;25.93;;;13.00;;
3795;SDS011;1913;50.660;7.834;2023-03-01T06:34:13;26.50;;;12.83;;
3795;SDS011;1913;50.660;7.834;2023-03-01T06:36:39;25.97;;;13.10;;
3795;SDS011;1913;50.660;7.834;2023-03-01T06:39:05;24.30;;;12.33;;
3795;SDS011;1913;50.660;7.834;2023-03-01T06:41:32;24.00;;;13.70;;
3795;SDS011;1913;50.660;7.834;2023-03-01T06:43:58;20.27;;;11.90;;
3795;SDS011;1913;50.660;7.834;2023-03-01T06:46:24;25.20;;;13.00;;
3795;SDS011;1913;50.660;7.834;2023-03-01T06:48:49;28.53;;;15.43;;
3795;SDS011;1913;50.660;7.834;2023-03-01T06:51:15;25.33;;;14.10;;
3795;SDS011;1913;50.660;7.834;2023-03-01T06:53:40;28.17;;;14.07;;
3795;SDS011;1913;50.660;7.834;2023-03-01T06:56:05;25.90;;;13.70;;
3795;SDS011;1913;50.660;7.834;2023-03-01T06:58:31;20.63;;;12.00;;
3795;SDS011;1913;50.660;7.834;2023-03-01T07:00:57;23.50;;;12.73;;
3795;SDS011;1913;50.660;7.834;2023-03-01T07:03:22;21.50;;;12.20;;
3795;SDS011;1913;50.660;7.834;2023-03-01T07:05:49;28.00;;;12.50;;
3795;SDS011;1913;50.660;7.834;2023-03-01T07:08:17;19.97;;;12.23;;
3795;SDS011;1913;50.660;7.834;2023-03-01T07:10:43;21.97;;;12.60;;
3795;SDS011;1913;50.660;7.834;2023-03-01T07:13:08;24.63;;;12.83;;
3795;SDS011;1913;50.660;7.834;2023-03-01T07:15:34;23.47;;;12.43;;
3795;SDS011;1913;50.660;7.834;2023-03-01T07:17:59;27.00;;;13.23;;
3795;SDS011;1913;50.660;7.834;2023-03-01T07:20:25;27.93;;;14.53;;
3795;SDS011;1913;50.660;7.834;2023-03-01T07:22:51;25.97;;;14.53;;
3795;SDS011;1913;50.660;7.834;2023-03-01T07:25:17;24.70;;;13.93;;
3795;SDS011;1913;50.660;7.834;2023-03-01T07:27:43;24.47;;;12.70;;
3795;SDS011;1913;50.660;7.834;2023-03-01T07:30:08;24.90;;;13.23;;
3795;SDS011;1913;50.660;7.834;2023-03-01T07:32:35;25.67;;;13.07;;
3795;SDS011;1913;50.660;7.834;2023-03-01T07:35:00;21.77;;;12.47;;
3795;SDS011;1913;50.660;7.834;2023-03-01T07:37:25;23.37;;;12.07;;
3795;SDS011;1913;50.660;7.834;2023-03-01T07:39:51;19.90;;;12.37;;
3795;SDS011;1913;50.660;7.834;2023-03-01T07:42:16;18.40;;;12.00;;
3795;SDS011;1913;50.660;7.834;2023-03-01T07:44:42;21.80;;;12.70;;
3795;SDS011;1913;50.660;7.834;2023-03-01T07:47:07;18.20;;;12.23;;
3795;SDS011;1913;50.660;7.834;2023-03-01T07:49:33;20.80;;;12.20;;
3795;SDS011;1913;50.660;7.834;2023-03-01T07:51:59;19.47;;;12.23;;
3795;SDS011;1913;50.660;7.834;2023-03-01T07:54:25;20.27;;;11.07;;
3795;SDS011;1913;50.660;7.834;2023-03-01T07:56:51;19.77;;;10.70;;
3795;SDS011;1913;50.660;7.834;2023-03-01T07:59:16;19.13;;;10.43;;
3795;SDS011;1913;50.660;7.834;2023-03-01T08:01:42;16.77;;;11.27;;
3795;SDS011;1913;50.660;7.834;2023-03-01T08:04:07;22.50;;;11.13;;
3795;SDS011;1913;50.660;7.834;2023-03-01T08:06:35;21.57;;;11.50;;
3795;SDS011;1913;50.660;7.834;2023-03-01T08:09:02;21.27;;;12.53;;
3795;SDS011;1913;50.660;7.834;2023-03-01T08:11:27;18.47;;;10.80;;
3795;SDS011;1913;50.660;7.834;2023-03-01T08:13:53;20.10;;;10.77;;
3795;SDS011;1913;50.660;7.834;2023-03-01T08:16:19;15.60;;;9.90;;
3795;SDS011;1913;50.660;7.834;2023-03-01T08:18:45;17.40;;;9.63;;
3795;SDS011;1913;50.660;7.834;2023-03-01T08:21:11;16.43;;;10.27;;
3795;SDS011;1913;50.660;7.834;2023-03-01T08:23:39;15.70;;;9.87;;
3795;SDS011;1913;50.660;7.834;2023-03-01T08:28:35;17.10;;;8.97;;
3795;SDS011;1913;50.660;7.834;2023-03-01T08:31:01;16.50;;;9.70;;
3795;SDS011;1913;50.660;7.834;2023-03-01T08:33:27;15.97;;;9.07;;
3795;SDS011;1913;50.660;7.834;2023-03-01T08:36:01;15.50;;;9.40;;
3795;SDS011;1913;50.660;7.834;2023-03-01T08:38:27;14.27;;;8.87;;
3795;SDS011;1913;50.660;7.834;2023-03-01T08:40:53;17.33;;;9.30;;
3795;SDS011;1913;50.660;7.834;2023-03-01T08:43:18;14.20;;;9.60;;
3795;SDS011;1913;50.660;7.834;2023-03-01T08:45:44;13.33;;;9.37;;
3795;SDS011;1913;50.660;7.834;2023-03-01T08:48:09;15.20;;;9.13;;
3795;SDS011;1913;50.660;7.834;2023-03-01T08:50:35;14.20;;;8.97;;
3795;SDS011;1913;50.660;7.834;2023-03-01T08:53:00;16.03;;;9.47;;
3795;SDS011;1913;50.660;7.834;2023-03-01T08:55:25;14.77;;;9.40;;
3795;SDS011;1913;50.660;7.834;2023-03-01T08:57:51;15.03;;;9.63;;
3795;SDS011;1913;50.660;7.834;2023-03-01T09:00:16;14.43;;;9.73;;
3795;SDS011;1913;50.660;7.834;2023-03-01T09:02:42;12.90;;;8.30;;
3795;SDS011;1913;50.660;7.834;2023-03-01T09:05:08;17.57;;;9.07;;
3795;SDS011;1913;50.660;7.834;2023-03-01T09:07:34;16.93;;;9.67;;
3795;SDS011;1913;50.660;7.834;2023-03-01T09:09:59;13.50;;;8.23;;
3795;SDS011;1913;50.660;7.834;2023-03-01T09:12:24;14.90;;;8.87;;
3795;SDS011;1913;50.660;7.834;2023-03-01T09:14:50;15.60;;;8.67;;
3795;SDS011;1913;50.660;7.834;2023-03-01T09:17:15;15.03;;;8.47;;
3795;SDS011;1913;50.660;7.834;2023-03-01T09:19:41;14.33;;;8.60;;
3795;SDS011;1913;50.660;7.834;2023-03-01T09:22:06;14.03;;;8.30;;
3795;SDS011;1913;50.660;7.834;2023-03-01T09:24:32;16.90;;;9.20;;
3795;SDS011;1913;50.660;7.834;2023-03-01T09:26:57;16.33;;;8.73;;
3795;SDS011;1913;50.660;7.834;2023-03-01T09:29:23;14.10;;;8.27;;
3795;SDS011;1913;50.660;7.834;2023-03-01T09:31:49;15.60;;;8.87;;
3795;SDS011;1913;50.660;7.834;2023-03-01T09:34:14;15.27;;;7.67;;
3795;SDS011;1913;50.660;7.834;2023-03-01T09:36:44;15.80;;;8.33;;
3795;SDS011;1913;50.660;7.834;2023-03-01T09:39:09;12.30;;;8.30;;
3795;SDS011;1913;50.660;7.834;2023-03-01T09:41:55;11.87;;;7.90;;
3795;SDS011;1913;50.660;7.834;2023-03-01T09:47:17;12.30;;;8.23;;
3795;SDS011;1913;50.660;7.834;2023-03-01T09:49:47;13.40;;;8.83;;
3795;SDS011;1913;50.660;7.834;2023-03-01T09:55:01;13.40;;;8.23;;
3795;SDS011;1913;50.660;7.834;2023-03-01T10:00:44;12.63;;;7.90;;
3795;SDS011;1913;50.660;7.834;2023-03-01T10:11:27;11.10;;;7.77;;
3795;SDS011;1913;50.660;7.834;2023-03-01T10:14:05;13.07;;;7.60;;
3795;SDS011;1913;50.660;7.834;2023-03-01T10:19:23;10.33;;;7.00;;
3795;SDS011;1913;50.660;7.834;2023-03-01T10:21:54;9.27;;;6.47;;
3795;SDS011;1913;50.660;7.834;2023-03-01T10:24:27;10.10;;;7.23;;
3795;SDS011;1913;50.660;7.834;2023-03-01T10:27:14;10.53;;;7.90;;
3795;SDS011;1913;50.660;7.834;2023-03-01T10:29:53;17.43;;;7.80;;
3795;SDS011;1913;50.660;7.834;2023-03-01T10:32:21;10.07;;;7.33;;
3795;SDS011;1913;50.660;7.834;2023-03-01T10:34:47;10.67;;;7.07;;
3795;SDS011;1913;50.660;7.834;2023-03-01T10:37:16;9.50;;;7.30;;
3795;SDS011;1913;50.660;7.834;2023-03-01T10:39:55;11.33;;;7.37;;
3795;SDS011;1913;50.660;7.834;2023-03-01T10:42:25;11.27;;;6.60;;
3795;SDS011;1913;50.660;7.834;2023-03-01T10:44:53;13.47;;;7.90;;
3795;SDS011;1913;50.660;7.834;2023-03-01T10:47:23;8.20;;;6.30;;
3795;SDS011;1913;50.660;7.834;2023-03-01T10:49:55;10.87;;;7.37;;
3795;SDS011;1913;50.660;7.834;2023-03-01T10:55:21;15.77;;;8.00;;
3795;SDS011;1913;50.660;7.834;2023-03-01T10:58:05;11.50;;;7.33;;
3795;SDS011;1913;50.660;7.834;2023-03-01T11:00:53;10.10;;;6.60;;
3795;SDS011;1913;50.660;7.834;2023-03-01T11:03:27;8.30;;;6.03;;
3795;SDS011;1913;50.660;7.834;2023-03-01T11:11:13;12.70;;;6.17;;
3795;SDS011;1913;50.660;7.834;2023-03-01T11:17:00;9.73;;;5.37;;
3795;SDS011;1913;50.660;7.834;2023-03-01T11:19:28;7.00;;;5.10;;
3795;SDS011;1913;50.660;7.834;2023-03-01T11:24:29;9.53;;;6.40;;
3795;SDS011;1913;50.660;7.834;2023-03-01T11:26:59;7.37;;;5.50;;
3795;SDS011;1913;50.660;7.834;2023-03-01T11:32:01;12.73;;;6.20;;
3795;SDS011;1913;50.660;7.834;2023-03-01T11:40:47;11.80;;;6.83;;
3795;SDS011;1913;50.660;7.834;2023-03-01T11:43:54;11.33;;;6.73;;
3795;SDS011;1913;50.660;7.834;2023-03-01T11:58:00;8.70;;;5.73;;
3795;SDS011;1913;50.660;7.834;2023-03-01T12:12:11;13.87;;;6.40;;
3795;SDS011;1913;50.660;7.834;2023-03-01T12:20:30;9.63;;;6.17;;
3795;SDS011;1913;50.660;7.834;2023-03-01T12:34:31;8.20;;;5.90;;
3795;SDS011;1913;50.660;7.834;2023-03-01T12:50:54;6.77;;;4.93;;
3795;SDS011;1913;50.660;7.834;2023-03-01T12:53:25;7.63;;;5.00;;
3795;SDS011;1913;50.660;7.834;2023-03-01T12:56:05;7.20;;;5.03;;
3795;SDS011;1913;50.660;7.834;2023-03-01T13:01:31;6.80;;;5.17;;
3795;SDS011;1913;50.660;7.834;2023-03-01T13:04:13;8.07;;;4.53;;
3795;SDS011;1913;50.660;7.834;2023-03-01T13:11:59;8.13;;;5.93;;
3795;SDS011;1913;50.660;7.834;2023-03-01T13:16:50;7.60;;;5.20;;
3795;SDS011;1913;50.660;7.834;2023-03-01T13:19:21;8.67;;;5.10;;
3795;SDS011;1913;50.660;7.834;2023-03-01T13:21:52;10.83;;;4.97;;
3795;SDS011;1913;50.660;7.834;2023-03-01T13:29:54;10.90;;;4.90;;
3795;SDS011;1913;50.660;7.834;2023-03-01T13:34:54;11.07;;;5.10;;
3795;SDS011;1913;50.660;7.834;2023-03-01T13:37:23;13.30;;;5.10;;
3795;SDS011;1913;50.660;7.834;2023-03-01T13:39:58;8.57;;;4.97;;
3795;SDS011;1913;50.660;7.834;2023-03-01T13:44:58;7.80;;;4.70;;
3795;SDS011;1913;50.660;7.834;2023-03-01T13:47:25;6.90;;;4.77;;
3795;SDS011;1913;50.660;7.834;2023-03-01T13:50:00;7.80;;;4.80;;
3795;SDS011;1913;50.660;7.834;2023-03-01T13:52:38;6.00;;;4.23;;
3795;SDS011;1913;50.660;7.834;2023-03-01T13:55:14;7.10;;;4.70;;
3795;SDS011;1913;50.660;7.834;2023-03-01T13:57:47;7.23;;;4.40;;
3795;SDS011;1913;50.660;7.834;2023-03-01T14:03:08;9.80;;;5.17;;
3795;SDS011;1913;50.660;7.834;2023-03-01T14:05:36;8.10;;;5.60;;
3795;SDS011;1913;50.660;7.834;2023-03-01T14:08:04;8.80;;;5.00;;
3795;SDS011;1913;50.660;7.834;2023-03-01T14:10:43;8.40;;;5.83;;
3795;SDS011;1913;50.660;7.834;2023-03-01T14:13:23;7.97;;;5.50;;
3795;SDS011;1913;50.660;7.834;2023-03-01T14:21:24;5.60;;;4.23;;
3795;SDS011;1913;50.660;7.834;2023-03-01T14:23:51;7.30;;;5.13;;
3795;SDS011;1913;50.660;7.834;2023-03-01T14:26:21;7.77;;;4.97;;
3795;SDS011;1913;50.660;7.834;2023-03-01T14:28:48;7.33;;;4.57;;
3795;SDS011;1913;50.660;7.834;2023-03-01T14:31:32;9.70;;;5.40;;
3795;SDS011;1913;50.660;7.834;2023-03-01T14:34:00;6.00;;;4.40;;
3795;SDS011;1913;50.660;7.834;2023-03-01T14:36:28;11.73;;;5.10;;
3795;SDS011;1913;50.660;7.834;2023-03-01T14:38:55;9.97;;;5.30;;
3795;SDS011;1913;50.660;7.834;2023-03-01T14:41:22;13.03;;;5.00;;
3795;SDS011;1913;50.660;7.834;2023-03-01T14:43:53;7.60;;;4.93;;
3795;SDS011;1913;50.660;7.834;2023-03-01T14:48:54;10.50;;;6.97;;
3795;SDS011;1913;50.660;7.834;2023-03-01T14:51:23;8.20;;;5.30;;
3795;SDS011;1913;50.660;7.834;2023-03-01T14:53:49;7.33;;;5.33;;
3795;SDS011;1913;50.660;7.834;2023-03-01T14:56:16;11.43;;;5.60;;
3795;SDS011;1913;50.660;7.834;2023-03-01T14:58:45;9.40;;;5.60;;
3795;SDS011;1913;50.660;7.834;2023-03-01T15:01:15;13.07;;;5.53;;
3795;SDS011;1913;50.660;7.834;2023-03-01T15:03:43;7.67;;;4.77;;
3795;SDS011;1913;50.660;7.834;2023-03-01T15:06:11;8.13;;;5.30;;
3795;SDS011;1913;50.660;7.834;2023-03-01T15:08:42;8.67;;;5.20;;
3795;SDS011;1913;50.660;7.834;2023-03-01T15:13:55;8.20;;;6.13;;
3795;SDS011;1913;50.660;7.834;2023-03-01T15:18:56;8.10;;;5.10;;
3795;SDS011;1913;50.660;7.834;2023-03-01T15:21:25;8.70;;;5.10;;
3795;SDS011;1913;50.660;7.834;2023-03-01T15:29:04;8.57;;;5.30;;
3795;SDS011;1913;50.660;7.834;2023-03-01T15:31:41;10.30;;;5.37;;
3795;SDS011;1913;50.660;7.834;2023-03-01T15:34:21;12.53;;;5.53;;
3795;SDS011;1913;50.660;7.834;2023-03-01T15:36:51;10.23;;;4.93;;
3795;SDS011;1913;50.660;7.834;2023-03-01T15:44:37;9.80;;;5.33;;
3795;SDS011;1913;50.660;7.834;2023-03-01T15:47:23;10.73;;;5.43;;
3795;SDS011;1913;50.660;7.834;2023-03-01T15:49:54;9.10;;;5.07;;
3795;SDS011;1913;50.660;7.834;2023-03-01T15:52:26;7.97;;;5.37;;
3795;SDS011;1913;50.660;7.834;2023-03-01T15:55:00;9.80;;;5.47;;
3795;SDS011;1913;50.660;7.834;2023-03-01T15:57:28;8.70;;;5.43;;
3795;SDS011;1913;50.660;7.834;2023-03-01T15:59:53;9.27;;;5.07;;
3795;SDS011;1913;50.660;7.834;2023-03-01T16:02:19;8.10;;;5.10;;
3795;SDS011;1913;50.660;7.834;2023-03-01T16:04:46;8.37;;;5.67;;
3795;SDS011;1913;50.660;7.834;2023-03-01T16:07:12;12.27;;;5.87;;
3795;SDS011;1913;50.660;7.834;2023-03-01T16:09:37;17.40;;;9.80;;
3795;SDS011;1913;50.660;7.834;2023-03-01T16:12:03;11.10;;;6.83;;
3795;SDS011;1913;50.660;7.834;2023-03-01T16:14:29;12.40;;;5.53;;
3795;SDS011;1913;50.660;7.834;2023-03-01T16:16:55;8.70;;;5.90;;
3795;SDS011;1913;50.660;7.834;2023-03-01T16:19:21;7.60;;;5.50;;
3795;SDS011;1913;50.660;7.834;2023-03-01T16:21:46;13.17;;;6.87;;
3795;SDS011;1913;50.660;7.834;2023-03-01T16:24:13;8.83;;;5.57;;
3795;SDS011;1913;50.660;7.834;2023-03-01T16:26:39;10.23;;;7.00;;
3795;SDS011;1913;50.660;7.834;2023-03-01T16:29:05;9.20;;;5.50;;
3795;SDS011;1913;50.660;7.834;2023-03-01T16:31:30;7.30;;;5.70;;
3795;SDS011;1913;50.660;7.834;2023-03-01T16:33:56;9.20;;;5.87;;
3795;SDS011;1913;50.660;7.834;2023-03-01T16:36:26;9.03;;;5.83;;
3795;SDS011;1913;50.660;7.834;2023-03-01T16:38:53;7.10;;;5.27;;
3795;SDS011;1913;50.660;7.834;2023-03-01T16:41:21;7.40;;;5.17;;
3795;SDS011;1913;50.660;7.834;2023-03-01T16:43:47;9.47;;;5.57;;
3795;SDS011;1913;50.660;7.834;2023-03-01T16:46:18;7.87;;;4.87;;
3795;SDS011;1913;50.660;7.834;2023-03-01T16:48:46;8.60;;;5.60;;
3795;SDS011;1913;50.660;7.834;2023-03-01T16:51:12;10.00;;;5.63;;
3795;SDS011;1913;50.660;7.834;2023-03-01T16:53:37;8.07;;;5.77;;
3795;SDS011;1913;50.660;7.834;2023-03-01T16:56:04;12.10;;;6.40;;
3795;SDS011;1913;50.660;7.834;2023-03-01T16:58:33;10.87;;;6.20;;
3795;SDS011;1913;50.660;7.834;2023-03-01T17:01:09;9.33;;;5.70;;
3795;SDS011;1913;50.660;7.834;2023-03-01T17:03:39;10.17;;;5.80;;
3795;SDS011;1913;50.660;7.834;2023-03-01T17:06:12;11.83;;;5.93;;
3795;SDS011;1913;50.660;7.834;2023-03-01T17:08:40;8.63;;;5.30;;
3795;SDS011;1913;50.660;7.834;2023-03-01T17:11:06;9.83;;;5.30;;
3795;SDS011;1913;50.660;7.834;2023-03-01T17:13:34;10.53;;;6.90;;
3795;SDS011;1913;50.660;7.834;2023-03-01T17:16:02;16.60;;;7.20;;
3795;SDS011;1913;50.660;7.834;2023-03-01T17:18:29;15.27;;;7.87;;
3795;SDS011;1913;50.660;7.834;2023-03-01T17:20:54;13.40;;;7.37;;
3795;SDS011;1913;50.660;7.834;2023-03-01T17:23:20;14.67;;;7.93;;
3795;SDS011;1913;50.660;7.834;2023-03-01T17:25:46;12.60;;;6.73;;
3795;SDS011;1913;50.660;7.834;2023-03-01T17:28:12;11.80;;;7.10;;
3795;SDS011;1913;50.660;7.834;2023-03-01T17:30:40;16.33;;;7.67;;
3795;SDS011;1913;50.660;7.834;2023-03-01T17:33:07;11.73;;;6.40;;
3795;SDS011;1913;50.660;7.834;2023-03-01T17:35:33;15.13;;;6.90;;
3795;SDS011;1913;50.660;7.834;2023-03-01T17:38:01;10.23;;;6.47;;
3795;SDS011;1913;50.660;7.834;2023-03-01T17:40:27;16.40;;;8.70;;
3795;SDS011;1913;50.660;7.834;2023-03-01T17:42:52;16.73;;;7.67;;
3795;SDS011;1913;50.660;7.834;2023-03-01T17:45:18;15.23;;;8.40;;
3795;SDS011;1913;50.660;7.834;2023-03-01T17:47:43;14.70;;;7.70;;
3795;SDS011;1913;50.660;7.834;2023-03-01T17:50:12;11.00;;;7.00;;
3795;SDS011;1913;50.660;7.834;2023-03-01T17:52:37;11.80;;;7.20;;
3795;SDS011;1913;50.660;7.834;2023-03-01T17:55:03;12.17;;;7.10;;